createdAt,value
2023-05-15T00:00:55.515Z,99.90
2023-05-15T00:03:23.624Z,99.90
2023-05-15T00:05:52.407Z,99.90
2023-05-15T00:08:20.611Z,99.90
2023-05-15T00:11:01.057Z,99.90
2023-05-15T00:13:36.286Z,99.90
2023-05-15T00:16:04.579Z,99.90
2023-05-15T00:18:33.297Z,99.90
2023-05-15T00:21:01.373Z,99.90
2023-05-15T00:23:29.427Z,99.90
2023-05-15T00:25:57.457Z,99.90
2023-05-15T00:28:25.775Z,99.90
2023-05-15T00:30:55.259Z,99.90
2023-05-15T00:33:23.278Z,99.90
2023-05-15T00:35:51.399Z,99.90
2023-05-15T00:38:19.447Z,99.90
2023-05-15T00:40:47.640Z,99.90
2023-05-15T00:43:16.970Z,99.90
2023-05-15T00:45:46.158Z,99.90
2023-05-15T00:48:16.633Z,99.90
2023-05-15T00:50:45.421Z,99.90
2023-05-15T00:53:13.529Z,99.90
2023-05-15T00:55:43.094Z,99.90
2023-05-15T00:58:11.924Z,99.90
2023-05-15T01:00:40.626Z,99.90
2023-05-15T01:03:11.355Z,99.90
2023-05-15T01:05:44.067Z,99.90
2023-05-15T01:08:20.083Z,99.90
2023-05-15T01:10:49.592Z,99.90
2023-05-15T01:13:17.717Z,99.90
2023-05-15T01:15:45.768Z,99.90
2023-05-15T01:18:13.933Z,99.90
2023-05-15T01:20:58.833Z,99.90
2023-05-15T01:23:44.291Z,99.90
2023-05-15T01:26:43.568Z,99.90
2023-05-15T01:29:19.988Z,99.90
2023-05-15T01:31:51.938Z,99.90
2023-05-15T01:34:23.515Z,99.90
2023-05-15T01:36:57.338Z,99.90
2023-05-15T01:39:32.944Z,99.90
2023-05-15T01:42:07.634Z,99.90
2023-05-15T01:44:39.181Z,99.90
2023-05-15T01:47:12.434Z,99.90
2023-05-15T01:49:43.477Z,99.90
2023-05-15T01:52:17.358Z,99.90
2023-05-15T01:54:47.497Z,99.90
2023-05-15T01:57:16.390Z,99.90
2023-05-15T01:59:46.941Z,99.90
2023-05-15T02:02:16.412Z,99.90
2023-05-15T02:04:45.698Z,99.90
2023-05-15T02:07:15.817Z,99.90
2023-05-15T02:09:44.301Z,99.90
2023-05-15T02:12:13.768Z,99.90
2023-05-15T02:14:42.508Z,99.90
2023-05-15T02:17:12.220Z,99.90
2023-05-15T02:19:40.351Z,99.90
2023-05-15T02:22:08.374Z,99.90
2023-05-15T02:24:36.419Z,99.90
2023-05-15T02:27:11.771Z,99.90
2023-05-15T02:30:00.017Z,99.90
2023-05-15T02:32:34.732Z,99.90
2023-05-15T02:35:13.433Z,99.90
2023-05-15T02:37:46.294Z,99.90
2023-05-15T02:40:16.132Z,99.90
2023-05-15T02:42:46.354Z,99.90
2023-05-15T02:45:14.787Z,99.90
2023-05-15T02:47:44.561Z,99.90
2023-05-15T02:50:13.079Z,99.90
2023-05-15T02:52:41.118Z,99.90
2023-05-15T02:55:10.425Z,99.90
2023-05-15T02:57:38.516Z,99.90
2023-05-15T03:00:11.731Z,99.90
2023-05-15T03:02:39.838Z,99.90
2023-05-15T03:05:10.200Z,99.90
2023-05-15T03:07:38.272Z,99.90
2023-05-15T03:10:07.446Z,99.90
2023-05-15T03:12:35.561Z,99.90
2023-05-15T03:15:03.779Z,99.90
2023-05-15T03:17:31.918Z,99.90
2023-05-15T03:20:00.126Z,99.90
2023-05-15T03:22:29.549Z,99.90
2023-05-15T03:24:57.619Z,99.90
2023-05-15T03:27:25.753Z,99.90
2023-05-15T03:29:53.806Z,99.90
2023-05-15T03:32:21.918Z,99.90
2023-05-15T03:34:50.053Z,99.90
2023-05-15T03:37:18.142Z,99.90
2023-05-15T03:39:47.531Z,99.90
2023-05-15T03:42:15.590Z,99.90
2023-05-15T03:44:43.620Z,99.90
2023-05-15T03:47:11.650Z,99.90
2023-05-15T03:49:39.674Z,99.90
2023-05-15T03:52:08.306Z,99.90
2023-05-15T03:54:36.503Z,99.90
2023-05-15T03:57:06.491Z,99.90
2023-05-15T03:59:34.573Z,99.90
2023-05-15T04:02:04.854Z,99.90
2023-05-15T04:04:35.416Z,99.90
2023-05-15T04:07:03.945Z,99.90
2023-05-15T04:09:34.116Z,99.90
2023-05-15T04:12:02.414Z,99.90
2023-05-15T04:14:34.706Z,99.90
2023-05-15T04:17:02.830Z,99.90
2023-05-15T04:19:30.909Z,99.90
2023-05-15T04:21:59.059Z,99.90
2023-05-15T04:24:28.107Z,99.90
2023-05-15T04:26:56.175Z,99.90
2023-05-15T04:29:24.282Z,99.90
2023-05-15T04:31:54.863Z,99.90
2023-05-15T04:34:22.948Z,99.90
2023-05-15T04:36:51.396Z,99.90
2023-05-15T04:39:19.385Z,99.90
2023-05-15T04:41:47.397Z,99.90
2023-05-15T04:44:15.377Z,99.90
2023-05-15T04:46:43.417Z,99.90
2023-05-15T04:49:12.840Z,99.90
2023-05-15T04:51:41.910Z,99.90
2023-05-15T04:54:09.924Z,99.90
2023-05-15T04:56:37.952Z,99.90
2023-05-15T04:59:05.972Z,99.90
2023-05-15T05:01:34.070Z,99.90
2023-05-15T05:04:02.768Z,99.90
2023-05-15T05:06:34.481Z,99.90
2023-05-15T05:09:02.495Z,99.90
2023-05-15T05:11:30.524Z,99.90
2023-05-15T05:13:58.570Z,99.90
2023-05-15T05:16:26.727Z,99.90
2023-05-15T05:18:54.882Z,99.90
2023-05-15T05:21:22.927Z,99.90
2023-05-15T05:23:52.375Z,99.90
2023-05-15T05:26:21.033Z,99.90
2023-05-15T05:28:49.158Z,99.90
2023-05-15T05:31:19.702Z,99.90
2023-05-15T05:33:49.446Z,99.90
2023-05-15T05:36:17.629Z,99.90
2023-05-15T05:38:45.614Z,99.90
2023-05-15T05:41:15.138Z,99.90
2023-05-15T05:43:43.184Z,99.90
2023-05-15T05:46:11.422Z,99.90
2023-05-15T05:48:39.555Z,99.90
2023-05-15T05:51:07.585Z,99.90
2023-05-15T05:53:37.604Z,99.90
2023-05-15T05:56:07.493Z,99.90
2023-05-15T05:58:36.906Z,99.90
2023-05-15T06:01:05.730Z,99.90
2023-05-15T06:03:35.945Z,99.90
2023-05-15T06:06:04.113Z,99.90
2023-05-15T06:08:32.509Z,99.90
2023-05-15T06:11:00.842Z,99.90
2023-05-15T06:13:28.985Z,99.90
2023-05-15T06:15:58.380Z,99.90
2023-05-15T06:18:26.517Z,99.90
2023-05-15T06:20:54.631Z,99.90
2023-05-15T06:23:24.326Z,99.90
2023-05-15T06:25:52.570Z,99.90
2023-05-15T06:28:20.578Z,99.90
2023-05-15T06:30:48.663Z,99.90
2023-05-15T06:33:18.213Z,99.90
2023-05-15T06:35:46.482Z,99.90
2023-05-15T06:38:14.552Z,99.90
2023-05-15T06:40:42.702Z,99.90
2023-05-15T06:43:10.910Z,99.90
2023-05-15T06:45:38.988Z,99.90
2023-05-15T06:48:07.485Z,99.90
2023-05-15T06:50:36.954Z,99.90
2023-05-15T06:53:04.982Z,99.90
2023-05-15T06:55:36.438Z,99.90
2023-05-15T06:58:05.609Z,99.90
2023-05-15T07:00:33.746Z,99.90
2023-05-15T07:03:01.859Z,99.90
2023-05-15T07:05:29.999Z,99.90
2023-05-15T07:07:59.417Z,99.90
2023-05-15T07:10:27.672Z,99.90
2023-05-15T07:12:56.069Z,99.90
2023-05-15T07:15:24.197Z,99.90
2023-05-15T07:17:52.355Z,99.90
2023-05-15T07:20:20.673Z,99.90
2023-05-15T07:22:56.178Z,99.90
2023-05-15T07:25:26.560Z,99.90
2023-05-15T07:27:54.821Z,99.90
2023-05-15T07:30:23.282Z,99.90
2023-05-15T07:32:51.555Z,99.90
2023-05-15T07:35:22.733Z,99.90
2023-05-15T07:37:50.896Z,99.90
2023-05-15T07:40:18.959Z,99.90
2023-05-15T07:42:48.360Z,99.90
2023-05-15T07:45:16.519Z,99.90
2023-05-15T07:47:47.706Z,99.90
2023-05-15T07:50:16.734Z,99.90
2023-05-15T07:52:45.071Z,99.90
2023-05-15T07:55:14.470Z,99.90
2023-05-15T07:57:42.539Z,99.90
2023-05-15T08:00:13.676Z,99.90
2023-05-15T08:02:46.230Z,99.90
2023-05-15T08:05:14.599Z,99.90
2023-05-15T08:07:42.653Z,99.90
2023-05-15T08:10:11.521Z,99.90
2023-05-15T08:12:46.028Z,99.90
2023-05-15T08:15:15.857Z,99.90
2023-05-15T08:17:44.120Z,99.90
2023-05-15T08:20:13.194Z,99.90
2023-05-15T08:22:41.354Z,99.90
2023-05-15T08:25:10.143Z,99.90
2023-05-15T08:27:38.180Z,99.90
2023-05-15T08:30:07.378Z,99.90
2023-05-15T08:32:36.875Z,99.90
2023-05-15T08:35:05.366Z,99.90
2023-05-15T08:37:34.432Z,99.90
2023-05-15T08:40:02.581Z,99.90
2023-05-15T08:42:36.630Z,99.90
2023-05-15T08:45:06.504Z,99.90
2023-05-15T08:47:40.489Z,99.90
2023-05-15T08:50:12.063Z,99.90
2023-05-15T08:52:41.695Z,99.90
2023-05-15T08:55:10.165Z,99.90
2023-05-15T08:57:38.850Z,99.90
2023-05-15T09:00:09.351Z,99.90
2023-05-15T09:02:39.772Z,99.90
2023-05-15T09:05:09.618Z,99.90
2023-05-15T09:07:41.701Z,99.90
2023-05-15T09:10:11.172Z,99.90
2023-05-15T09:12:46.050Z,99.90
2023-05-15T09:15:17.748Z,99.90
2023-05-15T09:17:47.785Z,99.90
2023-05-15T09:20:31.853Z,99.90
2023-05-15T09:23:01.514Z,99.90
2023-05-15T09:25:38.568Z,99.90
2023-05-15T09:28:07.383Z,99.90
2023-05-15T09:30:38.365Z,99.90
2023-05-15T09:33:08.034Z,99.90
2023-05-15T09:35:37.316Z,99.90
2023-05-15T09:38:09.436Z,98.40
2023-05-15T09:40:39.028Z,96.20
2023-05-15T09:43:07.181Z,96.30
2023-05-15T09:45:35.181Z,97.90
2023-05-15T09:48:08.301Z,99.20
2023-05-15T09:50:37.713Z,99.90
2023-05-15T09:53:06.682Z,99.90
2023-05-15T09:55:36.275Z,99.90
2023-05-15T09:58:11.727Z,99.90
2023-05-15T10:00:47.895Z,99.90
2023-05-15T10:03:21.176Z,99.90
2023-05-15T10:05:49.583Z,99.90
2023-05-15T10:08:27.083Z,99.90
2023-05-15T10:10:55.986Z,99.90
2023-05-15T10:13:24.708Z,99.90
2023-05-15T10:15:53.729Z,99.90
2023-05-15T10:18:30.023Z,99.90
2023-05-15T10:21:04.086Z,99.90
2023-05-15T10:23:35.081Z,99.90
2023-05-15T10:26:07.697Z,99.90
2023-05-15T10:28:37.353Z,99.90
2023-05-15T10:31:06.862Z,99.90
2023-05-15T10:33:37.995Z,99.90
2023-05-15T10:36:09.429Z,99.90
2023-05-15T10:38:39.618Z,99.90
2023-05-15T10:41:17.244Z,99.90
2023-05-15T10:43:47.007Z,99.90
2023-05-15T10:46:15.897Z,99.90
2023-05-15T10:48:52.492Z,99.90
2023-05-15T10:51:25.988Z,99.90
2023-05-15T10:53:54.389Z,99.90
2023-05-15T10:56:22.589Z,99.90
2023-05-15T10:58:51.991Z,99.90
2023-05-15T11:01:32.009Z,99.90
2023-05-15T11:04:13.093Z,99.90
2023-05-15T11:06:42.890Z,99.90
2023-05-15T11:09:42.878Z,99.90
2023-05-15T11:12:14.241Z,99.90
2023-05-15T11:14:45.825Z,99.90
2023-05-15T11:17:15.431Z,99.90
2023-05-15T11:20:02.120Z,99.90
2023-05-15T11:22:35.965Z,99.80
2023-05-15T11:25:06.929Z,99.90
2023-05-15T11:27:41.794Z,99.90
2023-05-15T11:30:17.950Z,99.90
2023-05-15T11:32:50.430Z,99.50
2023-05-15T11:35:26.103Z,99.70
2023-05-15T11:37:56.284Z,99.20
2023-05-15T11:40:26.891Z,98.50
2023-05-15T11:43:05.460Z,98.30
2023-05-15T11:45:35.392Z,98.00
2023-05-15T11:48:05.579Z,98.00
2023-05-15T11:50:36.210Z,97.50
2023-05-15T11:53:05.755Z,96.90
2023-05-15T11:55:35.600Z,96.80
2023-05-15T11:58:04.303Z,96.80
2023-05-15T12:00:32.563Z,95.90
2023-05-15T12:03:00.682Z,95.90
2023-05-15T12:05:28.757Z,96.20
2023-05-15T12:07:59.428Z,94.90
2023-05-15T12:10:27.768Z,95.50
2023-05-15T12:12:55.960Z,96.30
2023-05-15T12:15:24.086Z,96.30
2023-05-15T12:17:52.258Z,96.30
2023-05-15T12:20:20.479Z,96.60
2023-05-15T12:22:50.943Z,95.60
2023-05-15T12:25:21.802Z,95.80
2023-05-15T12:27:49.848Z,95.40
2023-05-15T12:30:19.251Z,93.70
2023-05-15T12:32:50.355Z,93.70
2023-05-15T12:35:18.613Z,93.60
2023-05-15T12:37:46.823Z,93.80
2023-05-15T12:40:15.224Z,93.90
2023-05-15T12:42:46.126Z,94.50
2023-05-15T12:45:15.547Z,94.90
2023-05-15T12:47:45.084Z,93.30
2023-05-15T12:50:15.801Z,94.20
2023-05-15T12:52:48.786Z,94.70
2023-05-15T12:55:18.296Z,94.70
2023-05-15T12:57:57.616Z,93.90
2023-05-15T13:00:26.618Z,93.70
2023-05-15T13:02:56.294Z,93.70
2023-05-15T13:05:25.070Z,93.00
2023-05-15T13:07:53.705Z,92.40
2023-05-15T13:10:23.806Z,91.00
2023-05-15T13:12:54.846Z,91.90
2023-05-15T13:15:25.475Z,93.00
2023-05-15T13:17:56.711Z,94.20
2023-05-15T13:20:25.424Z,95.30
2023-05-15T13:22:53.684Z,96.80
2023-05-15T13:25:22.379Z,99.90
2023-05-15T13:27:50.635Z,99.90
2023-05-15T13:30:20.674Z,99.90
2023-05-15T13:32:48.752Z,99.90
2023-05-15T13:35:21.555Z,99.90
2023-05-15T13:37:49.699Z,99.90
2023-05-15T13:40:17.805Z,99.90
2023-05-15T13:42:46.519Z,99.90
2023-05-15T13:45:15.570Z,99.90
2023-05-15T13:47:45.867Z,99.90
2023-05-15T13:50:15.257Z,99.90
2023-05-15T13:52:44.796Z,99.90
2023-05-15T13:55:12.871Z,99.90
2023-05-15T13:57:44.137Z,99.90
2023-05-15T14:00:13.959Z,99.90
2023-05-15T14:02:43.037Z,99.90
2023-05-15T14:05:13.810Z,99.90
2023-05-15T14:07:42.778Z,99.90
2023-05-15T14:10:11.871Z,99.90
2023-05-15T14:12:40.302Z,99.90
2023-05-15T14:15:11.147Z,99.90
2023-05-15T14:17:39.494Z,99.90
2023-05-15T14:20:13.012Z,99.90
2023-05-15T14:22:41.921Z,99.90
2023-05-15T14:25:10.848Z,99.90
2023-05-15T14:27:39.203Z,99.90
2023-05-15T14:30:08.915Z,99.90
2023-05-15T14:32:39.564Z,99.90
2023-05-15T14:35:08.179Z,99.90
2023-05-15T14:37:40.578Z,99.90
2023-05-15T14:40:10.387Z,99.90
2023-05-15T14:42:38.526Z,99.90
2023-05-15T14:45:08.123Z,99.90
2023-05-15T14:47:36.411Z,99.90
2023-05-15T14:50:04.981Z,99.90
2023-05-15T14:52:33.415Z,99.90
2023-05-15T14:57:36.996Z,99.90
2023-05-15T15:00:08.109Z,99.90
2023-05-15T15:02:36.289Z,99.90
2023-05-15T15:05:05.636Z,99.90
2023-05-15T15:08:00.696Z,99.90
2023-05-15T15:10:33.769Z,99.90
2023-05-15T15:13:02.116Z,99.90
2023-05-15T15:15:33.731Z,99.90
2023-05-15T15:18:02.263Z,99.90
2023-05-15T15:20:31.001Z,99.90
2023-05-15T15:22:59.245Z,99.90
2023-05-15T15:25:30.696Z,99.90
2023-05-15T15:28:00.327Z,99.90
2023-05-15T15:30:28.577Z,99.90
2023-05-15T15:32:59.534Z,99.90
2023-05-15T15:35:28.654Z,99.90
2023-05-15T15:37:57.083Z,99.90
2023-05-15T15:40:25.566Z,99.90
2023-05-15T15:42:55.457Z,99.90
2023-05-15T15:45:23.704Z,99.90
2023-05-15T15:47:51.926Z,99.90
2023-05-15T15:50:20.153Z,99.90
2023-05-15T15:53:01.691Z,99.90
2023-05-15T15:55:32.529Z,99.90
2023-05-15T15:58:02.791Z,99.90
2023-05-15T16:00:33.397Z,99.90
2023-05-15T16:03:07.574Z,99.90
2023-05-15T16:05:36.422Z,99.90
2023-05-15T16:08:05.622Z,99.90
2023-05-15T16:10:34.012Z,99.90
2023-05-15T16:13:05.378Z,99.90
2023-05-15T16:15:34.476Z,99.90
2023-05-15T16:18:03.369Z,99.90
2023-05-15T16:20:32.959Z,99.90
2023-05-15T16:23:03.253Z,99.90
2023-05-15T16:25:31.544Z,99.90
2023-05-15T16:28:00.154Z,99.90
2023-05-15T16:30:44.360Z,99.90
2023-05-15T16:33:18.066Z,99.90
2023-05-15T16:35:57.178Z,99.90
2023-05-15T16:38:26.465Z,99.90
2023-05-15T16:40:58.684Z,99.90
2023-05-15T16:43:26.845Z,99.90
2023-05-15T16:45:56.606Z,99.90
2023-05-15T16:48:29.561Z,99.90
2023-05-15T16:50:58.691Z,99.90
2023-05-15T16:53:27.384Z,99.90
2023-05-15T16:55:57.611Z,99.90
2023-05-15T16:58:25.734Z,99.90
2023-05-15T17:01:00.632Z,99.90
2023-05-15T17:06:57.990Z,99.90
2023-05-15T17:09:26.564Z,99.90
2023-05-15T17:11:54.769Z,99.90
2023-05-15T17:14:23.646Z,99.90
2023-05-15T17:16:51.842Z,99.90
2023-05-15T17:19:22.643Z,99.90
2023-05-15T17:21:50.971Z,99.90
2023-05-15T17:24:24.703Z,99.90
2023-05-15T17:26:55.399Z,99.90
2023-05-15T17:29:23.516Z,99.90
2023-05-15T17:31:51.961Z,99.90
2023-05-15T17:34:23.111Z,99.90
2023-05-15T17:36:51.286Z,99.90
2023-05-15T17:39:27.299Z,99.90
2023-05-15T17:41:58.743Z,99.90
2023-05-15T17:44:28.180Z,99.90
2023-05-15T17:46:58.450Z,99.90
2023-05-15T17:49:29.007Z,99.90
2023-05-15T17:51:57.290Z,99.90
2023-05-15T17:54:29.363Z,99.90
2023-05-15T17:56:57.838Z,99.90
2023-05-15T17:59:27.101Z,99.90
2023-05-15T18:01:55.390Z,99.90
2023-05-15T18:04:26.167Z,99.90
2023-05-15T18:06:54.380Z,99.90
2023-05-15T18:09:24.177Z,99.90
2023-05-15T18:11:54.187Z,99.90
2023-05-15T18:14:25.118Z,99.90
2023-05-15T18:16:53.284Z,99.90
2023-05-15T18:19:21.629Z,99.90
2023-05-15T18:21:52.549Z,99.90
2023-05-15T18:24:20.605Z,99.90
2023-05-15T18:26:48.663Z,99.90
2023-05-15T18:29:20.539Z,99.90
2023-05-15T18:31:48.732Z,99.90
2023-05-15T18:34:16.861Z,99.90
2023-05-15T18:36:44.890Z,99.90
2023-05-15T18:39:13.056Z,99.90
2023-05-15T18:41:42.276Z,99.90
2023-05-15T18:44:10.548Z,99.90
2023-05-15T18:46:40.066Z,99.90
2023-05-15T18:49:08.414Z,99.90
2023-05-15T18:51:36.535Z,99.90
2023-05-15T18:54:04.789Z,99.90
2023-05-15T18:56:33.037Z,99.90
2023-05-15T18:59:01.116Z,99.90
2023-05-15T19:01:29.255Z,99.90
2023-05-15T19:03:58.790Z,99.90
2023-05-15T19:06:26.836Z,99.90
2023-05-15T19:08:54.977Z,99.90
2023-05-15T19:11:23.114Z,99.90
2023-05-15T19:13:51.261Z,99.90
2023-05-15T19:16:19.579Z,99.90
2023-05-15T19:18:47.698Z,99.90
2023-05-15T19:21:20.998Z,99.90
2023-05-15T19:23:49.098Z,99.90
2023-05-15T19:26:17.161Z,99.90
2023-05-15T19:28:45.206Z,99.90
2023-05-15T19:31:24.110Z,99.90
2023-05-15T19:33:59.273Z,99.90
2023-05-15T19:36:28.765Z,99.90
2023-05-15T19:38:57.060Z,99.90
2023-05-15T19:41:25.253Z,99.90
2023-05-15T19:43:53.307Z,99.90
2023-05-15T19:46:21.383Z,99.90
2023-05-15T19:48:49.452Z,99.90
2023-05-15T19:51:17.594Z,99.90
2023-05-15T19:53:47.002Z,99.90
2023-05-15T19:56:15.118Z,99.90
2023-05-15T19:58:45.194Z,99.90
2023-05-15T20:01:13.985Z,99.90
2023-05-15T20:03:42.121Z,99.90
2023-05-15T20:06:11.645Z,99.90
2023-05-15T20:08:41.065Z,99.90
2023-05-15T20:11:10.703Z,99.90
2023-05-15T20:13:39.192Z,99.90
2023-05-15T20:16:10.371Z,99.90
2023-05-15T20:18:39.724Z,99.90
2023-05-15T20:21:07.858Z,99.90
2023-05-15T20:23:35.924Z,99.90
2023-05-15T20:26:04.823Z,99.90
2023-05-15T20:28:34.226Z,99.90
2023-05-15T20:31:03.408Z,99.90
2023-05-15T20:33:31.510Z,99.90
2023-05-15T20:36:00.227Z,99.90
2023-05-15T20:38:31.138Z,99.90
2023-05-15T20:40:59.168Z,99.90
2023-05-15T20:43:27.287Z,99.90
2023-05-15T20:45:57.773Z,99.90
2023-05-15T20:48:25.804Z,99.90
2023-05-15T20:50:54.093Z,99.90
2023-05-15T20:53:22.201Z,99.90
2023-05-15T20:55:53.116Z,99.90
2023-05-15T20:58:21.163Z,99.90
2023-05-15T21:00:49.187Z,99.90
2023-05-15T21:03:18.654Z,99.90
2023-05-15T21:05:49.373Z,99.90
2023-05-15T21:08:17.435Z,99.90
2023-05-15T21:10:45.477Z,99.90
2023-05-15T21:13:14.033Z,99.90
2023-05-15T21:15:42.042Z,99.90
2023-05-15T21:18:12.061Z,99.90
2023-05-15T21:20:44.266Z,99.90
2023-05-15T21:23:14.405Z,99.90
2023-05-15T21:25:44.980Z,99.90
2023-05-15T21:28:12.971Z,99.90
2023-05-15T21:30:40.973Z,99.90
2023-05-15T21:33:09.028Z,99.90
2023-05-15T21:35:37.998Z,99.90
2023-05-15T21:38:07.666Z,99.90
2023-05-15T21:40:35.748Z,99.90
2023-05-15T21:43:04.848Z,99.90
2023-05-15T21:45:33.139Z,99.90
2023-05-15T21:48:01.326Z,99.90
2023-05-15T21:50:29.316Z,99.90
2023-05-15T21:52:57.620Z,99.90
2023-05-15T21:55:27.084Z,99.90
2023-05-15T21:57:55.107Z,99.90
2023-05-15T22:00:23.202Z,99.90
2023-05-15T22:02:51.252Z,99.90
2023-05-15T22:05:19.340Z,99.90
2023-05-15T22:07:47.302Z,99.90
2023-05-15T22:10:16.589Z,99.90
2023-05-15T22:12:46.723Z,99.90
2023-05-15T22:15:16.588Z,99.90
2023-05-15T22:17:44.644Z,99.90
2023-05-15T22:20:13.938Z,99.90
2023-05-15T22:22:43.821Z,99.90
2023-05-15T22:25:11.963Z,99.90
2023-05-15T22:27:39.944Z,99.90
2023-05-15T22:30:10.480Z,99.90
2023-05-15T22:32:38.629Z,99.90
2023-05-15T22:35:08.274Z,99.90
2023-05-15T22:37:36.671Z,99.90
2023-05-15T22:40:07.463Z,99.90
2023-05-15T22:42:35.500Z,99.90
2023-05-15T22:45:04.102Z,99.90
2023-05-15T22:47:33.943Z,99.90
2023-05-15T22:50:02.689Z,99.90
2023-05-15T22:52:30.717Z,99.90
2023-05-15T22:54:59.290Z,99.90
2023-05-15T22:57:30.762Z,99.90
2023-05-15T22:59:58.860Z,99.90
2023-05-15T23:02:26.992Z,99.90
2023-05-15T23:04:56.453Z,99.90
2023-05-15T23:07:24.474Z,99.90
2023-05-15T23:09:52.719Z,99.90
2023-05-15T23:12:21.044Z,99.90
2023-05-15T23:14:49.013Z,99.90
2023-05-15T23:17:17.080Z,99.90
2023-05-15T23:19:45.100Z,99.90
2023-05-15T23:22:14.500Z,99.90
2023-05-15T23:24:42.515Z,99.90
2023-05-15T23:27:10.648Z,99.90
2023-05-15T23:29:38.671Z,99.90
2023-05-15T23:32:07.809Z,99.90
2023-05-15T23:34:35.811Z,99.90
2023-05-15T23:37:03.866Z,99.90
2023-05-15T23:39:33.282Z,99.90
2023-05-15T23:42:01.299Z,99.90
2023-05-15T23:44:29.333Z,99.90
2023-05-15T23:46:57.360Z,99.90
2023-05-15T23:49:25.425Z,99.90
2023-05-15T23:51:53.508Z,99.90
2023-05-15T23:54:21.550Z,99.90
2023-05-15T23:56:50.988Z,99.90
2023-05-15T23:59:18.989Z,99.90
